Time;durP1;ratioP1;P1;durP2;ratioP2;P2;SDS_P1;SDS_P2;PMS_P1;PMS_P2;Temp;Humidity;BMP_temperature;BMP_pressure;BME280_temperature;BME280_humidity;BME280_pressure;Samples;Min_cycle;Max_cycle;Signal;HPM_P1;HPM_P2
2023/05/06 00:01:33;;;;;;;4.72;1.80;;;;;;;15.09;100.00;100321.50;5130747;23;20070;-94
2023/05/06 00:04:06;;;;;;;2.88;1.83;;;;;;;15.05;100.00;100302.16;5080608;28;20071;-94
2023/05/06 00:09:20;;;;;;;3.50;1.80;;;;;;;15.17;100.00;100302.28;5076927;28;20045;-95
2023/05/06 00:11:50;;;;;;;3.65;1.60;;;;;;;15.66;100.00;100385.25;5071072;28;20033;-94
2023/05/06 00:14:23;;;;;;;3.22;2.08;;;;;;;15.41;100.00;100346.88;5041953;28;20049;-94
2023/05/06 00:16:50;;;;;;;4.55;1.90;;;;;;;15.04;100.00;100287.13;5056955;28;20037;-95
2023/05/06 00:19:33;;;;;;;2.33;1.88;;;;;;;15.13;100.00;100325.63;5055847;28;20049;-94
2023/05/06 00:22:04;;;;;;;4.10;2.22;;;;;;;15.39;100.00;100391.47;5040511;28;20104;-94
2023/05/06 00:24:32;;;;;;;3.50;2.10;;;;;;;15.27;100.00;100392.25;5058577;28;20072;-93
2023/05/06 00:27:02;;;;;;;2.97;2.15;;;;;;;15.11;100.00;100372.06;5074967;28;20045;-94
2023/05/06 00:29:32;;;;;;;5.40;2.00;;;;;;;15.19;100.00;100385.75;5053327;28;20053;-96
2023/05/06 00:32:04;;;;;;;2.30;2.03;;;;;;;14.77;100.00;100315.63;5073796;28;20037;-96
2023/05/06 00:34:37;;;;;;;4.10;2.50;;;;;;;14.96;100.00;100358.75;5039745;28;20052;-94
2023/05/06 00:37:11;;;;;;;2.53;2.30;;;;;;;14.78;100.00;100332.47;5054016;28;20053;-94
2023/05/06 00:39:42;;;;;;;3.28;2.05;;;;;;;14.55;100.00;100292.16;5057073;28;20116;-95
2023/05/06 00:42:13;;;;;;;2.83;2.40;;;;;;;14.43;100.00;100278.78;5056364;28;20056;-96
2023/05/06 00:44:56;;;;;;;3.72;2.30;;;;;;;14.96;100.00;100382.75;5077403;28;20048;-95
2023/05/06 00:47:33;;;;;;;3.25;2.40;;;;;;;14.79;100.00;100350.19;5047340;28;20117;-96
2023/05/06 00:50:05;;;;;;;4.03;2.33;;;;;;;14.70;100.00;100348.94;5045968;28;20119;-95
2023/05/06 00:52:36;;;;;;;2.67;2.13;;;;;;;14.88;100.00;100385.09;5048437;28;20394;-96
2023/05/06 00:55:05;;;;;;;4.70;2.30;;;;;;;14.29;100.00;100298.28;5043942;28;20069;-95
2023/05/06 00:57:39;;;;;;;3.40;2.40;;;;;;;14.55;100.00;100357.94;5065059;28;20071;-95
2023/05/06 01:00:10;;;;;;;4.80;2.65;;;;;;;14.25;100.00;100313.59;5040402;28;20041;-96
2023/05/06 01:02:41;;;;;;;4.18;2.35;;;;;;;14.61;100.00;100390.38;5049114;28;20044;-95
2023/05/06 01:05:21;;;;;;;3.75;2.92;;;;;;;14.44;100.00;100374.59;5076096;28;20071;-94
2023/05/06 01:08:19;;;;;;;4.10;2.50;;;;;;;14.52;100.00;100384.75;5035199;28;20037;-95
2023/05/06 01:11:15;;;;;;;2.38;2.10;;;;;;;14.54;100.00;100382.88;5028885;28;20058;-96
2023/05/06 01:14:00;;;;;;;3.42;2.05;;;;;;;14.54;100.00;100382.88;5027933;28;20101;-96
2023/05/06 01:16:38;;;;;;;2.72;2.33;;;;;;;14.25;100.00;100339.38;5023517;28;20046;-94
2023/05/06 01:19:45;;;;;;;3.10;2.30;;;;;;;13.95;100.00;100286.25;5023916;28;20056;-95
2023/05/06 01:22:33;;;;;;;3.50;2.60;;;;;;;14.21;100.00;100321.88;5026076;28;20117;-94
2023/05/06 01:25:21;;;;;;;6.53;2.35;;;;;;;14.27;100.00;100330.34;5028307;28;20070;-94
2023/05/06 01:27:56;;;;;;;3.00;1.95;;;;;;;14.31;100.00;100336.34;5025636;28;20033;-94
2023/05/06 01:30:37;;;;;;;4.57;3.00;;;;;;;13.88;100.00;100283.09;5038876;28;20141;-94
2023/05/06 01:33:38;;;;;;;5.88;3.50;;;;;;;14.38;100.00;100381.13;5040702;28;20160;-94
2023/05/06 01:36:29;;;;;;;5.80;3.20;;;;;;;14.30;100.00;100375.44;5043441;28;20068;-93
2023/05/06 01:39:39;;;;;;;3.50;2.45;;;;;;;14.28;100.00;100376.50;5043683;28;20043;-94
2023/05/06 01:42:10;;;;;;;3.75;2.30;;;;;;;14.30;100.00;100380.78;5027250;28;20037;-94
2023/05/06 01:44:42;;;;;;;2.50;2.30;;;;;;;14.30;100.00;100382.59;5027298;28;20049;-95
2023/05/06 01:47:12;;;;;;;3.42;2.60;;;;;;;13.97;100.00;100326.94;5010210;28;20037;-95
2023/05/06 01:49:42;;;;;;;4.03;2.72;;;;;;;13.86;100.00;100298.31;5091808;22;20052;-93
2023/05/06 01:52:09;;;;;;;4.72;2.20;;;;;;;14.37;100.00;100387.41;5040545;28;20034;-94
2023/05/06 01:54:40;;;;;;;3.28;2.38;;;;;;;13.83;100.00;100295.88;5049791;28;20041;-94
2023/05/06 01:57:10;;;;;;;4.65;2.10;;;;;;;14.00;100.00;100324.09;5049281;28;20414;-94
2023/05/06 01:59:37;;;;;;;4.82;2.50;;;;;;;14.27;100.00;100386.28;5030767;28;20049;-95
2023/05/06 02:02:12;;;;;;;4.30;2.40;;;;;;;14.29;100.00;100391.53;5046870;28;20053;-94
2023/05/06 02:04:44;;;;;;;3.70;2.25;;;;;;;14.37;100.00;100390.06;5047875;28;20045;-94
2023/05/06 02:07:11;;;;;;;4.95;2.10;;;;;;;14.45;100.00;100399.44;5046779;28;20367;-94
2023/05/06 02:09:43;;;;;;;3.08;2.00;;;;;;;14.50;100.00;100397.31;5060914;28;20056;-94
2023/05/06 02:12:10;;;;;;;3.30;2.50;;;;;;;14.37;100.00;100386.56;5044899;28;20045;-95
2023/05/06 02:14:41;;;;;;;4.30;1.92;;;;;;;13.89;100.00;100315.91;5045836;28;20044;-94
2023/05/06 02:17:08;;;;;;;3.20;1.98;;;;;;;14.47;100.00;100413.53;5044217;28;20056;-94
2023/05/06 02:19:44;;;;;;;;;;;;;;;14.44;100.00;100419.03;5045556;28;20045;-94
2023/05/06 02:22:15;;;;;;;4.25;1.98;;;;;;;14.39;100.00;100411.28;5047192;28;20357;-95
2023/05/06 02:24:50;;;;;;;3.50;2.00;;;;;;;14.07;100.00;100370.69;5050182;28;20101;-94
2023/05/06 02:27:25;;;;;;;3.22;2.22;;;;;;;13.76;100.00;100322.94;5037742;28;20055;-96
2023/05/06 02:30:00;;;;;;;5.10;2.25;;;;;;;14.29;100.00;100416.34;5053224;28;20056;-96
2023/05/06 02:32:36;;;;;;;3.92;2.30;;;;;;;13.99;100.00;100352.53;5030928;28;20440;-94
2023/05/06 02:35:20;;;;;;;3.80;2.20;;;;;;;14.26;100.00;100411.22;5046765;28;20049;-95
2023/05/06 02:37:53;;;;;;;4.43;2.25;;;;;;;14.21;100.00;100420.41;5029989;28;20046;-94
2023/05/06 02:40:21;;;;;;;4.97;2.22;;;;;;;13.96;100.00;100381.13;5045003;28;20049;-95
2023/05/06 02:42:52;;;;;;;5.72;2.03;;;;;;;13.88;100.00;100375.41;5030184;28;20065;-94
2023/05/06 02:45:24;;;;;;;3.20;2.40;;;;;;;13.92;100.00;100417.72;5026282;28;20045;-94
2023/05/06 02:47:54;;;;;;;2.97;2.22;;;;;;;13.79;100.00;100413.25;5043430;28;20072;-94
2023/05/06 02:50:30;;;;;;;4.32;2.40;;;;;;;13.16;100.00;100315.88;5011064;28;20045;-95
2023/05/06 02:53:00;;;;;;;3.90;2.65;;;;;;;13.68;100.00;100414.75;5045876;28;20057;-95
2023/05/06 02:55:31;;;;;;;5.18;2.15;;;;;;;13.68;100.00;100417.41;5036506;28;20060;-94
2023/05/06 02:57:58;;;;;;;2.63;2.00;;;;;;;13.13;100.00;100317.84;5052313;28;20042;-95
2023/05/06 03:00:25;;;;;;;3.47;2.60;;;;;;;13.01;100.00;100322.06;5041125;28;20104;-95
2023/05/06 03:03:00;;;;;;;3.33;2.33;;;;;;;13.41;100.00;100413.69;5053858;28;20041;-96
2023/05/06 03:05:28;;;;;;;5.80;2.38;;;;;;;13.27;100.00;100406.53;5043088;28;20049;-96
2023/05/06 03:07:56;;;;;;;4.38;2.30;;;;;;;13.19;100.00;100414.09;5045875;28;20053;-95
2023/05/06 03:10:29;;;;;;;3.75;2.47;;;;;;;13.14;100.00;100418.78;5056895;28;20048;-96
2023/05/06 03:12:57;;;;;;;5.30;2.72;;;;;;;13.10;100.00;100425.22;5058768;28;20042;-94
2023/05/06 03:15:31;;;;;;;5.65;2.55;;;;;;;12.43;100.00;100325.41;5018984;28;20057;-96
2023/05/06 03:18:07;;;;;;;3.55;2.47;;;;;;;12.86;100.00;100411.50;5046595;28;20084;-94
2023/05/06 03:20:35;;;;;;;5.30;2.80;;;;;;;12.92;100.00;100429.75;5048133;28;20049;-95
2023/05/06 03:23:08;;;;;;;4.68;2.63;;;;;;;12.84;100.00;100418.72;5047753;28;20103;-95
2023/05/06 03:25:36;;;;;;;3.58;2.50;;;;;;;12.65;100.00;100388.78;5048561;28;20025;-94
2023/05/06 03:28:05;;;;;;;5.53;2.83;;;;;;;12.80;100.00;100392.38;5059030;28;20037;-96
2023/05/06 03:30:34;;;;;;;4.82;2.70;;;;;;;13.12;100.00;100431.28;5058692;28;20045;-93
2023/05/06 03:33:01;;;;;;;3.63;2.45;;;;;;;12.71;100.00;100369.84;5041728;28;20026;-94
2023/05/06 03:35:29;;;;;;;4.47;2.78;;;;;;;12.44;100.00;100334.19;5053960;28;20045;-95
2023/05/06 03:37:56;;;;;;;2.90;2.22;;;;;;;12.91;100.00;100441.31;5030886;28;20050;-95
2023/05/06 03:40:25;;;;;;;3.38;2.50;;;;;;;12.95;100.00;100432.25;5045819;28;20045;-95
2023/05/06 03:42:55;;;;;;;4.22;2.40;;;;;;;12.94;100.00;100421.69;5031316;28;20049;-95
2023/05/06 03:45:28;;;;;;;3.35;2.30;;;;;;;12.76;100.00;100380.22;5050118;28;20053;-95
2023/05/06 03:47:55;;;;;;;6.15;2.75;;;;;;;13.18;100.00;100432.78;5035416;28;20064;-95
2023/05/06 03:50:26;;;;;;;5.70;2.67;;;;;;;13.19;100.00;100427.38;5019280;28;20126;-95
2023/05/06 03:52:55;;;;;;;5.18;2.58;;;;;;;13.00;100.00;100389.47;5048293;28;20095;-95
2023/05/06 03:55:38;;;;;;;4.15;2.83;;;;;;;13.01;100.00;100385.88;5053782;28;20041;-94
2023/05/06 03:58:24;;;;;;;3.80;2.85;;;;;;;13.36;100.00;100429.09;5057809;28;20045;-95
2023/05/06 04:00:53;;;;;;;7.82;2.70;;;;;;;13.38;100.00;100427.16;5055726;28;20038;-93
2023/05/06 04:03:28;;;;;;;4.97;2.80;;;;;;;13.34;100.00;100425.66;5055603;28;20034;-93
2023/05/06 04:05:57;;;;;;;4.47;2.47;;;;;;;13.17;100.00;100412.47;5056835;28;20092;-95
2023/05/06 04:08:29;;;;;;;2.85;2.58;;;;;;;12.68;100.00;100362.06;5022952;28;20045;-95
2023/05/06 04:11:06;;;;;;;4.15;2.50;;;;;;;12.82;100.00;100401.13;5056499;28;20041;-93
2023/05/06 04:13:37;;;;;;;2.97;2.60;;;;;;;13.04;100.00;100443.31;5056832;28;20037;-94
2023/05/06 04:16:07;;;;;;;5.75;2.78;;;;;;;13.11;100.00;100442.00;5040292;28;20063;-94
2023/05/06 04:18:36;;;;;;;4.32;2.60;;;;;;;13.16;100.00;100437.34;5040691;28;20045;-93
2023/05/06 04:21:04;;;;;;;5.72;2.60;;;;;;;12.93;100.00;100388.94;5057219;28;20060;-96
2023/05/06 04:23:36;;;;;;;4.82;2.35;;;;;;;12.73;100.00;100365.31;5055032;28;20057;-95
2023/05/06 04:26:07;;;;;;;4.10;2.60;;;;;;;13.13;100.00;100438.31;5054863;28;20041;-94
2023/05/06 04:28:42;;;;;;;4.60;2.50;;;;;;;13.16;100.00;100432.88;5055777;28;20037;-94
2023/05/06 04:31:17;;;;;;;3.45;2.60;;;;;;;12.85;100.00;100379.72;5057331;28;20041;-94
2023/05/06 04:33:46;;;;;;;6.15;2.80;;;;;;;13.31;100.00;100429.34;5057047;28;20041;-95
2023/05/06 04:36:12;;;;;;;3.45;3.00;;;;;;;13.23;100.00;100417.41;5056276;28;20037;-94
2023/05/06 04:38:43;;;;;;;4.13;2.83;;;;;;;12.95;100.00;100368.44;5057513;28;20045;-95
2023/05/06 04:41:15;;;;;;;4.30;2.55;;;;;;;12.89;100.00;100368.81;5056747;28;20046;-95
2023/05/06 04:43:46;;;;;;;;;;;;;;;13.35;100.00;100448.66;5057303;28;20041;-95
2023/05/06 04:46:32;;;;;;;4.13;2.90;;;;;;;13.00;100.00;100413.38;5057896;28;19909;-95
2023/05/06 04:49:00;;;;;;;5.30;3.63;;;;;;;12.72;100.00;100397.28;5040324;28;20034;-91
2023/05/06 04:51:27;;;;;;;6.15;3.70;;;;;;;12.91;100.00;100457.28;5056696;28;20041;-94
2023/05/06 04:53:59;;;;;;;5.95;3.20;;;;;;;12.67;100.00;100412.63;5056614;28;20041;-95
2023/05/06 04:56:28;;;;;;;5.05;3.50;;;;;;;12.90;100.00;100452.94;5055735;28;20109;-96
2023/05/06 04:58:58;;;;;;;4.63;3.20;;;;;;;12.97;100.00;100456.94;5056880;28;20044;-95
2023/05/06 05:01:34;;;;;;;4.43;3.40;;;;;;;13.09;100.00;100460.72;5056884;28;20045;-94
2023/05/06 05:04:03;;;;;;;6.72;3.92;;;;;;;12.68;100.00;100415.19;5056801;28;20057;-94
2023/05/06 05:06:43;;;;;;;6.28;3.85;;;;;;;12.24;100.00;100362.72;5056315;28;20052;-95
2023/05/06 05:09:25;;;;;;;4.75;4.25;;;;;;;12.46;100.00;100409.31;5108168;22;20105;-91
2023/05/06 05:11:55;;;;;;;6.30;4.13;;;;;;;12.38;100.00;100398.28;5153217;22;21437;-93
2023/05/06 05:14:23;;;;;;;5.07;3.90;;;;;;;12.59;100.00;100421.84;5042185;28;20041;-95
2023/05/06 05:16:53;;;;;;;6.07;4.05;;;;;;;12.48;100.00;100370.25;5059356;28;20033;-94
2023/05/06 05:19:25;;;;;;;5.55;4.25;;;;;;;12.61;100.00;100371.28;5154108;22;20053;-91
2023/05/06 05:21:55;;;;;;;6.17;4.30;;;;;;;12.76;100.00;100385.53;5147578;22;20061;-89
2023/05/06 05:24:23;;;;;;;4.63;4.18;;;;;;;13.36;100.00;100465.47;5059196;28;20045;-90
2023/05/06 05:26:57;;;;;;;7.45;4.20;;;;;;;13.38;100.00;100472.38;5061380;28;20096;-92
2023/05/06 05:29:30;;;;;;;5.53;4.30;;;;;;;13.28;100.00;100472.06;5060694;28;20067;-94
2023/05/06 05:32:00;;;;;;;7.97;4.63;;;;;;;13.19;100.00;100471.75;5060446;28;20061;-92
2023/05/06 05:34:29;;;;;;;5.15;4.20;;;;;;;13.15;100.00;100467.53;5059638;28;20128;-92
2023/05/06 05:37:10;;;;;;;4.40;3.78;;;;;;;13.27;100.00;100485.44;5045747;28;20063;-94
2023/05/06 05:39:48;;;;;;;5.32;4.00;;;;;;;13.41;100.00;100482.84;5061132;28;20112;-93
2023/05/06 05:42:17;;;;;;;6.30;4.20;;;;;;;13.49;100.00;100485.94;5044222;28;20076;-94
2023/05/06 05:44:49;;;;;;;5.53;4.13;;;;;;;13.31;100.00;100449.75;5060559;28;20033;-95
2023/05/06 05:47:22;;;;;;;5.90;3.88;;;;;;;13.63;100.00;100485.16;5076963;28;20040;-94
2023/05/06 05:49:53;;;;;;;5.05;4.35;;;;;;;13.39;100.00;100431.53;5060174;28;20052;-95
2023/05/06 05:52:27;;;;;;;6.32;4.57;;;;;;;13.89;100.00;100488.94;5077243;28;20063;-96
2023/05/06 05:55:00;;;;;;;5.57;4.47;;;;;;;14.10;100.00;100489.47;5044251;28;20049;-95
2023/05/06 05:57:29;;;;;;;6.47;4.90;;;;;;;14.25;100.00;100493.88;5076794;28;20052;-95
2023/05/06 06:00:00;;;;;;;7.45;5.10;;;;;;;14.36;100.00;100492.25;5076887;28;20068;-96
2023/05/06 06:02:40;;;;;;;5.82;4.72;;;;;;;14.47;100.00;100485.47;5047103;28;20087;-95
2023/05/06 06:05:15;;;;;;;8.88;4.55;;;;;;;14.55;100.00;100488.50;5058436;28;20041;-94
2023/05/06 06:07:55;;;;;;;7.93;4.97;;;;;;;14.04;100.00;100389.50;5056214;28;20055;-94
2023/05/06 06:10:23;;;;;;;6.80;4.57;;;;;;;14.82;100.00;100494.78;5054102;28;20075;-96
2023/05/06 06:12:52;;;;;;;7.70;4.97;;;;;;;14.96;100.00;100493.88;5037339;28;20045;-95
2023/05/06 06:15:21;;;;;;;8.63;6.10;;;;;;;14.26;100.00;100397.88;5066999;28;20088;-95
2023/05/06 06:17:53;;;;;;;6.90;5.65;;;;;;;14.79;100.00;100495.00;5035368;28;20045;-95
2023/05/06 06:20:26;;;;;;;8.35;5.93;;;;;;;14.50;100.00;100439.97;5052603;28;20037;-94
2023/05/06 06:23:10;;;;;;;6.97;5.47;;;;;;;14.98;100.00;100503.50;5038479;28;20395;-94
2023/05/06 06:25:38;;;;;;;8.02;5.88;;;;;;;15.06;100.00;100463.03;5032636;28;20113;-93
2023/05/06 06:28:07;;;;;;;6.57;5.25;;;;;;;15.70;100.00;100502.41;5036229;28;20053;-94
2023/05/06 06:30:38;;;;;;;8.23;5.63;;;;;;;16.22;100.00;100504.22;5039446;28;20058;-95
2023/05/06 06:33:07;;;;;;;8.52;5.90;;;;;;;16.46;100.00;100502.53;5038354;28;20049;-94
2023/05/06 06:35:34;;;;;;;8.13;5.97;;;;;;;16.56;100.00;100496.53;5035093;28;20109;-95
2023/05/06 06:38:05;;;;;;;10.07;5.78;;;;;;;16.09;100.00;100436.56;5038283;28;20056;-93
2023/05/06 06:40:44;;;;;;;8.48;5.65;;;;;;;16.05;100.00;100413.72;5032848;28;20065;-94
2023/05/06 06:43:20;;;;;;;7.22;5.22;;;;;;;16.70;100.00;100493.78;5030915;28;20049;-95
2023/05/06 06:45:47;;;;;;;9.38;6.22;;;;;;;16.77;100.00;100471.00;5018091;28;20029;-93
2023/05/06 06:48:16;;;;;;;7.40;5.18;;;;;;;17.05;100.00;100512.66;5020337;28;20045;-93
2023/05/06 06:50:55;;;;;;;7.20;5.45;;;;;;;17.02;100.00;100443.31;5036461;28;20060;-93
2023/05/06 06:53:29;;;;;;;7.80;5.47;;;;;;;17.34;97.01;100476.59;5039172;28;20049;-93
2023/05/06 06:56:28;;;;;;;6.45;5.20;;;;;;;17.45;95.45;100462.44;5055594;28;20063;-96
2023/05/06 06:59:09;;;;;;;9.25;5.47;;;;;;;18.15;92.57;100502.66;5039561;28;20095;-95
2023/05/06 07:01:40;;;;;;;8.95;5.22;;;;;;;18.25;86.00;100484.94;5036006;28;20041;-94
2023/05/06 07:04:13;;;;;;;8.70;5.03;;;;;;;18.21;87.97;100475.41;5018285;28;20073;-93
2023/05/06 07:07:33;;;;;;;6.13;4.10;;;;;;;18.70;82.80;100496.59;5052235;28;20059;-94
2023/05/06 07:10:01;;;;;;;7.50;4.60;;;;;;;18.93;78.65;100476.81;5034669;28;20041;-93
2023/05/06 07:12:32;;;;;;;8.35;4.85;;;;;;;19.25;74.44;100458.09;5015281;28;20080;-95
2023/05/06 07:15:05;;;;;;;7.13;4.53;;;;;;;19.02;75.38;100424.25;5032583;28;20048;-95
2023/05/06 07:17:35;;;;;;;5.35;4.10;;;;;;;19.72;72.05;100506.22;5033552;28;20049;-94
2023/05/06 07:20:10;;;;;;;7.05;4.38;;;;;;;19.75;68.52;100463.81;5034407;28;20072;-93
2023/05/06 07:22:42;;;;;;;7.45;4.70;;;;;;;19.93;66.08;100448.84;5043782;28;20037;-93
2023/05/06 07:25:10;;;;;;;6.85;4.53;;;;;;;19.96;65.13;100464.72;5057737;28;20037;-94
2023/05/06 07:27:39;;;;;;;5.35;3.83;;;;;;;19.55;65.45;100464.63;5072547;28;20061;-93
2023/05/06 07:30:11;;;;;;;6.78;4.60;;;;;;;19.15;69.77;100496.56;5053458;28;20125;-93
2023/05/06 07:32:40;;;;;;;8.48;4.53;;;;;;;18.65;72.69;100455.84;5053233;28;20056;-91
2023/05/06 07:35:08;;;;;;;5.35;4.18;;;;;;;18.68;76.77;100460.13;5049944;28;20042;-93
2023/05/06 07:37:37;;;;;;;5.55;3.80;;;;;;;19.23;75.73;100512.88;5049206;28;20053;-94
2023/05/06 07:40:07;;;;;;;4.25;3.78;;;;;;;19.65;72.99;100507.72;5045507;28;20069;-94
2023/05/06 07:42:53;;;;;;;5.57;4.07;;;;;;;19.95;66.76;100518.59;5036250;28;20104;-93
2023/05/06 07:45:29;;;;;;;5.78;3.90;;;;;;;19.88;64.68;100501.25;5053354;28;20042;-94
2023/05/06 07:48:07;;;;;;;4.20;3.70;;;;;;;19.58;65.99;100515.41;5049840;28;20112;-94
2023/05/06 07:50:36;;;;;;;5.25;3.60;;;;;;;19.50;67.72;100523.28;5045839;28;20049;-93
2023/05/06 07:53:04;;;;;;;6.25;3.28;;;;;;;19.42;67.46;100515.78;5046292;28;20061;-93
2023/05/06 07:55:31;;;;;;;4.72;2.90;;;;;;;19.60;67.72;100497.34;5045204;28;20045;-94
2023/05/06 07:58:00;;;;;;;4.68;2.67;;;;;;;20.31;59.88;100499.31;5045741;28;20099;-94
2023/05/06 08:00:34;;;;;;;4.27;2.53;;;;;;;20.70;57.92;100496.03;5045658;28;20050;-93
2023/05/06 08:03:02;;;;;;;3.17;2.60;;;;;;;21.16;58.24;100522.44;5030334;28;20446;-94
2023/05/06 08:05:37;;;;;;;2.95;2.30;;;;;;;21.53;54.63;100506.56;5046694;28;20051;-93
2023/05/06 08:08:20;;;;;;;4.70;2.90;;;;;;;22.07;53.94;100515.97;5049022;28;20105;-93
2023/05/06 08:10:51;;;;;;;4.25;2.60;;;;;;;22.47;52.01;100518.47;5055421;28;20076;-91
2023/05/06 08:13:26;;;;;;;2.05;1.60;;;;;;;22.62;50.19;100509.78;5048771;28;20056;-92
2023/05/06 08:16:08;;;;;;;4.55;1.77;;;;;;;22.81;49.75;100518.84;5047359;28;20052;-94
2023/05/06 08:19:05;;;;;;;3.30;1.58;;;;;;;22.64;49.19;100501.53;4967544;29;20051;-93
2023/05/06 08:21:33;;;;;;;3.22;1.75;;;;;;;22.36;49.82;100468.22;4965332;29;20160;-95
2023/05/06 08:24:12;;;;;;;4.32;1.92;;;;;;;22.22;49.85;100493.81;4964638;28;20141;-93
2023/05/06 08:26:41;;;;;;;2.17;1.30;;;;;;;22.17;49.35;100530.31;4965669;29;20047;-93
2023/05/06 08:29:10;;;;;;;3.85;1.50;;;;;;;21.52;50.22;100502.16;4950729;29;20047;-93
2023/05/06 08:31:50;;;;;;;6.32;2.58;;;;;;;20.99;52.20;100505.09;4952845;29;20043;-93
2023/05/06 08:34:20;;;;;;;3.73;1.73;;;;;;;20.54;53.92;100488.44;4952389;29;20039;-95
2023/05/06 08:37:14;;;;;;;3.80;1.88;;;;;;;20.64;55.76;100521.63;5019438;28;20045;-94
2023/05/06 08:40:18;;;;;;;3.80;1.50;;;;;;;20.65;55.96;100485.66;5048558;28;20131;-92
2023/05/06 08:43:06;;;;;;;1.45;1.25;;;;;;;21.16;53.62;100525.13;5044434;28;20053;-93
2023/05/06 08:45:49;;;;;;;3.63;1.10;;;;;;;21.35;52.45;100528.78;5043278;28;20083;-93
2023/05/06 08:48:18;;;;;;;;;;;;;;;21.45;52.22;100526.09;5042900;28;20045;-94
2023/05/06 08:50:47;;;;;;;3.15;1.20;;;;;;;21.75;51.57;100525.13;5041463;28;19921;-93
2023/05/06 08:53:15;;;;;;;3.92;1.50;;;;;;;22.14;50.39;100509.88;5041626;28;20057;-93
2023/05/06 08:55:48;;;;;;;2.00;1.33;;;;;;;22.64;48.56;100518.59;5041819;28;20045;-93
2023/05/06 08:58:17;;;;;;;2.25;1.60;;;;;;;22.77;48.07;100520.13;5042879;28;20075;-93
2023/05/06 09:00:51;;;;;;;4.85;1.80;;;;;;;22.44;47.45;100519.63;5040916;28;20049;-92
2023/05/06 09:03:21;;;;;;;2.67;1.58;;;;;;;21.91;49.66;100520.03;5045206;28;20045;-92
2023/05/06 09:05:53;;;;;;;3.58;1.40;;;;;;;22.22;48.47;100506.44;5048072;28;20052;-93
2023/05/06 09:08:27;;;;;;;2.15;1.33;;;;;;;22.60;46.27;100522.56;5049803;28;20049;-92
2023/05/06 09:10:56;;;;;;;2.85;1.30;;;;;;;22.67;46.09;100512.88;5050836;28;20037;-94
2023/05/06 09:13:30;;;;;;;3.00;1.20;;;;;;;22.48;46.22;100518.34;5050936;28;20045;-94
2023/05/06 09:15:59;;;;;;;1.40;1.30;;;;;;;22.19;46.64;100513.00;5052299;28;20108;-93
2023/05/06 09:18:28;;;;;;;1.70;1.10;;;;;;;21.63;48.28;100520.88;5035316;28;20496;-94
2023/05/06 09:21:03;;;;;;;3.60;1.35;;;;;;;20.96;50.62;100513.44;5064185;28;20101;-94
2023/05/06 09:23:39;;;;;;;1.75;0.95;;;;;;;20.93;52.08;100516.41;5052464;28;20071;-94
2023/05/06 09:26:13;;;;;;;3.15;1.13;;;;;;;20.92;51.18;100488.66;5052604;28;20053;-94
2023/05/06 09:28:47;;;;;;;1.67;0.90;;;;;;;21.14;51.29;100513.63;5038710;28;20049;-92
2023/05/06 09:31:17;;;;;;;3.40;0.93;;;;;;;21.31;50.79;100503.09;5054123;28;20053;-94
2023/05/06 09:34:00;;;;;;;3.63;1.30;;;;;;;21.59;49.62;100503.28;5035895;28;20506;-93
2023/05/06 09:36:32;;;;;;;1.88;1.00;;;;;;;21.63;49.61;100508.25;5048679;28;20135;-93
2023/05/06 09:39:00;;;;;;;1.52;0.82;;;;;;;21.35;49.93;100509.91;5046500;28;20050;-95
2023/05/06 09:41:49;;;;;;;2.10;0.90;;;;;;;21.17;51.19;100503.44;5060455;28;20052;-95
2023/05/06 09:44:16;;;;;;;3.80;1.40;;;;;;;21.13;49.50;100501.16;5046968;28;20103;-94
2023/05/06 09:46:49;;;;;;;2.83;1.65;;;;;;;20.55;50.95;100507.16;5049770;28;20443;-93
2023/05/06 09:49:18;;;;;;;2.17;0.80;;;;;;;20.07;51.67;100468.31;5032592;28;20104;-95
2023/05/06 09:52:01;;;;;;;1.08;0.73;;;;;;;20.27;52.18;100486.28;5048178;28;20060;-95
2023/05/06 09:54:39;;;;;;;2.60;0.95;;;;;;;20.41;52.14;100494.03;5047478;28;20057;-95
2023/05/06 09:57:16;;;;;;;2.35;0.80;;;;;;;20.10;52.26;100444.72;5048763;28;20128;-94
2023/05/06 10:00:06;;;;;;;2.10;0.77;;;;;;;20.55;52.54;100496.38;5050994;28;20111;-94
2023/05/06 10:02:48;;;;;;;4.10;0.90;;;;;;;20.90;51.90;100477.16;5049244;28;20046;-94
2023/05/06 10:05:23;;;;;;;3.30;1.10;;;;;;;21.14;50.42;100492.94;5033571;28;20045;-93
2023/05/06 10:08:25;;;;;;;1.48;0.80;;;;;;;21.28;49.92;100491.72;5048611;28;20061;-93
2023/05/06 10:11:09;;;;;;;1.85;0.90;;;;;;;21.26;48.96;100453.31;5036477;28;20049;-93
2023/05/06 10:13:52;;;;;;;0.57;0.57;;;;;;;21.53;48.85;100485.00;5051099;28;20049;-92
2023/05/06 10:16:53;;;;;;;1.90;0.70;;;;;;;21.64;48.65;100487.56;5049604;28;20079;-93
2023/05/06 10:19:44;;;;;;;2.05;0.70;;;;;;;21.46;48.38;100456.91;5053050;28;20068;-95
2023/05/06 10:22:18;;;;;;;1.25;0.88;;;;;;;21.54;49.41;100489.41;5051644;28;20054;-93
2023/05/06 10:25:43;;;;;;;1.35;0.70;;;;;;;21.76;48.85;100480.16;5077968;28;20059;-93
2023/05/06 10:28:41;;;;;;;1.00;0.57;;;;;;;21.49;48.80;100443.16;5054217;28;20097;-95
2023/05/06 10:31:14;;;;;;;1.67;0.98;;;;;;;21.58;48.29;100453.06;5046765;28;20032;-94
2023/05/06 10:33:46;;;;;;;1.98;1.00;;;;;;;21.21;49.01;100448.38;5047976;28;20037;-93
2023/05/06 10:36:32;;;;;;;1.77;1.13;;;;;;;21.52;48.64;100464.44;5064153;28;20071;-94
2023/05/06 10:39:08;;;;;;;2.15;0.82;;;;;;;21.71;48.45;100453.66;5061236;28;20131;-92
2023/05/06 10:41:49;;;;;;;2.17;0.95;;;;;;;21.91;48.09;100454.50;5057252;28;20041;-92
2023/05/06 10:45:02;;;;;;;2.13;0.75;;;;;;;21.85;47.83;100460.47;5055335;28;20474;-94
2023/05/06 10:47:51;;;;;;;1.40;1.00;;;;;;;21.62;48.81;100449.09;5072532;28;20071;-95
2023/05/06 10:50:25;;;;;;;2.05;0.77;;;;;;;21.56;48.22;100441.59;5061754;28;20056;-93
2023/05/06 10:53:08;;;;;;;1.77;1.02;;;;;;;21.64;48.15;100447.13;5059189;28;20044;-93
2023/05/06 10:55:45;;;;;;;1.00;0.83;;;;;;;21.38;48.76;100448.69;5039056;28;20040;-94
2023/05/06 10:58:15;;;;;;;1.48;0.60;;;;;;;21.27;48.25;100445.09;5056790;28;20065;-94
2023/05/06 11:00:55;;;;;;;1.13;0.57;;;;;;;21.29;48.34;100442.28;5061126;28;20071;-93
2023/05/06 11:03:43;;;;;;;2.28;0.55;;;;;;;21.24;48.23;100431.09;5063148;28;20048;-95
2023/05/06 11:06:47;;;;;;;2.53;0.70;;;;;;;21.44;48.39;100442.72;5076932;28;20096;-94
2023/05/06 11:09:57;;;;;;;1.58;0.63;;;;;;;21.54;47.41;100439.06;5078649;28;20086;-94
2023/05/06 11:13:22;;;;;;;2.88;0.70;;;;;;;21.58;47.23;100437.75;5079801;28;20033;-94
2023/05/06 11:16:00;;;;;;;0.98;0.70;;;;;;;21.62;46.89;100432.94;5047418;28;20105;-93
2023/05/06 11:18:44;;;;;;;1.58;0.73;;;;;;;21.40;47.10;100396.38;5061424;28;20045;-95
2023/05/06 11:21:19;;;;;;;1.48;0.60;;;;;;;21.66;47.45;100434.38;5044853;28;20041;-95
2023/05/06 11:24:07;;;;;;;1.42;0.63;;;;;;;21.20;47.54;100378.47;5077327;28;20059;-95
2023/05/06 11:27:05;;;;;;;2.38;0.95;;;;;;;20.88;49.14;100400.22;5072564;28;20049;-94
2023/05/06 11:29:34;;;;;;;1.52;0.80;;;;;;;20.91;50.18;100443.00;5044065;28;20041;-93
2023/05/06 11:32:55;;;;;;;2.58;1.00;;;;;;;20.79;50.34;100436.00;5047050;28;20041;-95
2023/05/06 11:35:44;;;;;;;1.77;0.90;;;;;;;20.12;50.91;100345.97;5079067;28;20043;-95
2023/05/06 11:38:19;;;;;;;1.38;0.70;;;;;;;20.92;51.05;100433.94;5045260;28;20060;-94
2023/05/06 11:41:55;;;;;;;1.30;1.08;;;;;;;21.09;49.83;100382.13;5058156;28;20052;-96
2023/05/06 11:45:19;;;;;;;1.25;0.80;;;;;;;21.60;48.42;100425.00;5071350;28;20037;-96
2023/05/06 11:48:04;;;;;;;1.30;0.88;;;;;;;21.24;49.09;100407.69;5076893;28;20067;-94
2023/05/06 11:50:59;;;;;;;2.00;0.80;;;;;;;21.02;49.28;100391.75;5075422;28;20071;-93
2023/05/06 11:57:43;;;;;;;1.75;0.77;;;;;;;20.90;49.70;100427.84;5074336;28;20040;-94
2023/05/06 12:00:28;;;;;;;1.98;1.17;;;;;;;20.78;50.98;100402.03;5047107;28;20115;-94
2023/05/06 12:03:20;;;;;;;1.10;0.70;;;;;;;21.10;49.76;100421.50;5074876;28;20051;-95
2023/05/06 12:06:17;;;;;;;2.22;0.80;;;;;;;21.21;50.12;100425.97;5062149;28;20037;-95
2023/05/06 12:09:01;;;;;;;1.10;0.60;;;;;;;20.90;49.21;100398.25;5056436;28;20096;-94
2023/05/06 12:11:35;;;;;;;1.35;0.73;;;;;;;20.90;50.31;100419.78;5060297;28;20033;-92